createdAt,value
2023-03-12T00:00:50.088Z,100007.25
2023-03-12T00:03:18.572Z,99999.84
2023-03-12T00:05:46.748Z,100003.06
2023-03-12T00:08:15.006Z,100010.25
2023-03-12T00:10:43.152Z,100013.72
2023-03-12T00:13:11.223Z,100007.25
2023-03-12T00:15:40.861Z,100001.03
2023-03-12T00:18:08.926Z,100006.69
2023-03-12T00:20:36.899Z,100004.84
2023-03-12T00:23:05.368Z,100018.22
2023-03-12T00:25:33.608Z,100002.81
2023-03-12T00:28:01.691Z,100007.03
2023-03-12T00:30:29.666Z,100009.00
2023-03-12T00:32:58.976Z,100009.84
2023-03-12T00:35:26.979Z,100008.94
2023-03-12T00:37:54.997Z,100009.16
2023-03-12T00:40:23.047Z,100013.03
2023-03-12T00:42:51.009Z,100013.28
2023-03-12T00:45:19.149Z,100010.94
2023-03-12T00:47:47.121Z,100017.75
2023-03-12T00:50:16.957Z,100026.81
2023-03-12T00:52:45.281Z,100028.50
2023-03-12T00:55:13.290Z,100029.19
2023-03-12T00:57:41.244Z,100034.25
2023-03-12T01:00:10.941Z,100026.31
2023-03-12T01:02:39.643Z,100026.47
2023-03-12T01:05:09.853Z,100024.09
2023-03-12T01:07:39.512Z,100029.69
2023-03-12T01:10:09.180Z,100025.28
2023-03-12T01:12:37.379Z,100029.66
2023-03-12T01:15:05.933Z,100026.59
2023-03-12T01:17:34.010Z,100029.59
2023-03-12T01:20:02.044Z,100034.53
2023-03-12T01:22:30.097Z,100031.38
2023-03-12T01:24:59.428Z,100034.66
2023-03-12T01:27:27.813Z,100034.59
2023-03-12T01:29:55.897Z,100035.31
2023-03-12T01:32:24.066Z,100036.81
2023-03-12T01:34:52.107Z,100031.03
2023-03-12T01:37:20.092Z,100031.13
2023-03-12T01:39:48.106Z,100025.75
2023-03-12T01:42:17.477Z,100023.25
2023-03-12T01:44:53.698Z,100032.81
2023-03-12T01:47:21.836Z,100039.34
2023-03-12T01:49:51.221Z,100043.25
2023-03-12T01:52:23.567Z,100046.56
2023-03-12T01:54:56.575Z,100038.53
2023-03-12T01:57:35.445Z,100044.75
2023-03-12T02:00:09.026Z,100051.50
2023-03-12T02:02:37.782Z,100059.25
2023-03-12T02:05:14.714Z,100046.34
2023-03-12T02:07:45.336Z,100048.50
2023-03-12T02:10:13.487Z,100048.63
2023-03-12T02:12:42.914Z,100042.72
2023-03-12T02:15:12.081Z,100036.38
2023-03-12T02:17:40.610Z,100036.50
2023-03-12T02:20:18.686Z,100044.75
2023-03-12T02:22:52.618Z,100057.72
2023-03-12T02:25:31.010Z,100058.41
2023-03-12T02:28:01.057Z,100059.91
2023-03-12T02:30:31.306Z,100059.09
2023-03-12T02:33:02.977Z,100062.47
2023-03-12T02:35:31.205Z,100069.69
2023-03-12T02:37:59.474Z,100061.44
2023-03-12T02:40:33.302Z,100069.34
2023-03-12T02:43:07.361Z,100066.50
2023-03-12T02:45:39.373Z,100065.31
2023-03-12T02:48:10.367Z,100065.81
2023-03-12T02:50:38.415Z,100056.25
2023-03-12T02:53:09.001Z,100063.44
2023-03-12T02:55:38.360Z,100069.78
2023-03-12T02:58:06.388Z,100070.31
2023-03-12T03:00:34.521Z,100062.56
2023-03-12T03:03:03.140Z,100061.38
2023-03-12T03:05:31.202Z,100054.84
2023-03-12T03:07:59.204Z,100062.06
2023-03-12T03:10:27.239Z,100066.47
2023-03-12T03:12:57.961Z,100067.81
2023-03-12T03:15:26.193Z,100074.38
2023-03-12T03:17:54.206Z,100063.09
2023-03-12T03:20:22.750Z,100038.59
2023-03-12T03:22:50.755Z,100064.72
2023-03-12T03:25:22.297Z,100063.53
2023-03-12T03:27:50.372Z,100065.06
2023-03-12T03:30:21.331Z,100066.06
2023-03-12T03:32:49.854Z,100060.28
2023-03-12T03:35:18.833Z,100055.88
2023-03-12T03:37:47.032Z,100064.63
2023-03-12T03:40:15.084Z,100067.13
2023-03-12T03:42:43.063Z,100068.66
2023-03-12T03:45:11.383Z,100070.22
2023-03-12T03:47:40.713Z,100080.13
2023-03-12T03:50:09.333Z,100084.13
2023-03-12T03:52:37.439Z,100093.22
2023-03-12T03:55:05.954Z,100099.97
2023-03-12T03:57:33.974Z,100104.72
2023-03-12T04:00:03.941Z,100103.81
2023-03-12T04:02:32.164Z,100108.84
2023-03-12T04:05:01.697Z,100104.97
2023-03-12T04:07:29.842Z,100116.47
2023-03-12T04:09:58.718Z,100107.41
2023-03-12T04:12:26.774Z,100120.28
2023-03-12T04:14:54.830Z,100118.09
2023-03-12T04:17:23.532Z,100114.50
2023-03-12T04:19:51.707Z,100117.53
2023-03-12T04:22:21.036Z,100121.25
2023-03-12T04:24:49.030Z,100116.22
2023-03-12T04:27:17.136Z,100115.38
2023-03-12T04:29:45.476Z,100123.44
2023-03-12T04:32:13.418Z,100123.41
2023-03-12T04:34:41.466Z,100116.53
2023-03-12T04:37:11.363Z,100125.25
2023-03-12T04:39:41.269Z,100122.88
2023-03-12T04:42:09.989Z,100133.13
2023-03-12T04:44:38.484Z,100137.31
2023-03-12T04:47:06.705Z,100136.31
2023-03-12T04:49:34.772Z,100132.78
2023-03-12T04:52:02.739Z,100131.22
2023-03-12T04:54:31.955Z,100135.06
2023-03-12T04:57:01.313Z,100136.56
2023-03-12T04:59:29.487Z,100139.09
2023-03-12T05:01:57.446Z,100137.09
2023-03-12T05:04:25.515Z,100136.25
2023-03-12T05:06:53.526Z,100131.53
2023-03-12T05:09:21.657Z,100125.75
2023-03-12T05:11:49.774Z,100119.03
2023-03-12T05:14:19.177Z,100127.91
2023-03-12T05:16:47.245Z,100115.63
2023-03-12T05:19:15.250Z,100130.22
2023-03-12T05:21:43.316Z,100123.16
2023-03-12T05:24:12.293Z,100121.78
2023-03-12T05:26:40.772Z,100120.78
2023-03-12T05:29:08.766Z,100122.47
2023-03-12T05:31:38.227Z,100121.38
2023-03-12T05:34:06.794Z,100123.72
2023-03-12T05:36:35.123Z,100109.44
2023-03-12T05:39:03.325Z,100112.97
2023-03-12T05:41:31.873Z,100107.25
2023-03-12T05:44:00.318Z,100109.44
2023-03-12T05:46:29.126Z,100105.66
2023-03-12T05:48:58.752Z,100107.75
2023-03-12T05:51:26.894Z,100115.31
2023-03-12T05:53:54.895Z,100119.19
2023-03-12T05:56:22.912Z,100110.47
2023-03-12T05:58:50.923Z,100116.03
2023-03-12T06:01:22.953Z,100119.22
2023-03-12T06:03:51.389Z,100120.94
2023-03-12T06:06:21.406Z,100117.72
2023-03-12T06:08:49.481Z,100111.50
2023-03-12T06:11:17.937Z,100117.53
2023-03-12T06:13:45.955Z,100129.59
2023-03-12T06:16:18.817Z,100121.84
2023-03-12T06:18:46.898Z,100126.44
2023-03-12T06:21:17.265Z,100123.38
2023-03-12T06:23:47.573Z,100118.31
2023-03-12T06:26:16.592Z,100121.63
2023-03-12T06:28:44.612Z,100124.78
2023-03-12T06:31:12.753Z,100124.13
2023-03-12T06:33:40.848Z,100131.84
2023-03-12T06:36:10.607Z,100116.94
2023-03-12T06:38:39.033Z,100123.66
2023-03-12T06:41:10.264Z,100120.09
2023-03-12T06:43:39.896Z,100136.34
2023-03-12T06:46:13.639Z,100133.19
2023-03-12T06:48:42.290Z,100131.81
2023-03-12T06:51:11.560Z,100130.50
2023-03-12T06:53:42.225Z,100132.84
2023-03-12T06:56:12.730Z,100129.94
2023-03-12T06:58:42.219Z,100133.75
2023-03-12T07:01:12.217Z,100127.69
2023-03-12T07:03:40.466Z,100132.81
2023-03-12T07:06:16.516Z,100135.63
2023-03-12T07:08:45.010Z,100141.13
2023-03-12T07:11:15.074Z,100148.03
2023-03-12T07:13:43.472Z,100143.28
2023-03-12T07:16:12.454Z,100143.97
2023-03-12T07:18:40.927Z,100148.16
2023-03-12T07:21:08.988Z,100148.97
2023-03-12T07:23:37.052Z,100147.81
2023-03-12T07:26:05.850Z,100142.75
2023-03-12T07:28:38.042Z,100141.94
2023-03-12T07:31:06.904Z,100146.94
2023-03-12T07:33:38.470Z,100143.75
2023-03-12T07:36:07.527Z,100151.75
2023-03-12T07:38:35.610Z,100151.03
2023-03-12T07:41:03.677Z,100156.19
2023-03-12T07:43:31.695Z,100153.91
2023-03-12T07:46:01.056Z,100149.13
2023-03-12T07:48:31.838Z,100149.47
2023-03-12T07:50:59.795Z,100143.47
2023-03-12T07:53:27.886Z,100142.66
2023-03-12T07:55:56.394Z,100144.72
2023-03-12T07:58:24.610Z,100151.97
2023-03-12T08:00:53.814Z,100144.63
2023-03-12T08:03:23.426Z,100140.94
2023-03-12T08:05:59.325Z,100145.78
2023-03-12T08:08:27.855Z,100142.63
2023-03-12T08:10:56.476Z,100135.66
2023-03-12T08:13:24.870Z,100140.72
2023-03-12T08:15:54.247Z,100134.28
2023-03-12T08:18:24.962Z,100136.59
2023-03-12T08:20:53.880Z,100135.69
2023-03-12T08:23:23.163Z,100144.41
2023-03-12T08:25:51.563Z,100132.06
2023-03-12T08:28:20.925Z,100130.69
2023-03-12T08:30:50.033Z,100130.06
2023-03-12T08:33:18.277Z,100135.53
2023-03-12T08:35:47.837Z,100128.75
2023-03-12T08:38:15.791Z,100133.91
2023-03-12T08:40:43.873Z,100133.47
2023-03-12T08:43:13.457Z,100132.63
2023-03-12T08:45:42.166Z,100130.22
2023-03-12T08:48:14.269Z,100128.31
2023-03-12T08:50:43.384Z,100128.81
2023-03-12T08:53:14.522Z,100124.22
2023-03-12T08:55:43.388Z,100129.28
2023-03-12T08:58:11.521Z,100139.34
2023-03-12T09:00:41.476Z,100140.19
2023-03-12T09:03:15.166Z,100131.19
2023-03-12T09:05:44.704Z,100138.09
2023-03-12T09:08:15.594Z,100146.72
2023-03-12T09:10:50.169Z,100141.97
2023-03-12T09:13:18.492Z,100137.53
2023-03-12T09:15:46.425Z,100138.44
2023-03-12T09:18:14.365Z,100140.19
2023-03-12T09:20:43.707Z,100136.13
2023-03-12T09:23:13.021Z,100140.75
2023-03-12T09:25:41.035Z,100137.09
2023-03-12T09:28:09.793Z,100141.81
2023-03-12T09:30:37.828Z,100145.06
2023-03-12T09:33:06.320Z,100135.97
2023-03-12T09:35:34.551Z,100141.97
2023-03-12T09:38:02.758Z,100142.81
2023-03-12T09:40:34.011Z,100137.81
2023-03-12T09:43:05.868Z,100132.50
2023-03-12T09:45:39.322Z,100135.22
2023-03-12T09:48:13.568Z,100131.88
2023-03-12T09:50:44.379Z,100131.91
2023-03-12T09:53:22.146Z,100130.81
2023-03-12T09:55:54.816Z,100131.06
2023-03-12T09:58:28.625Z,100128.91
2023-03-12T10:01:07.162Z,100133.47
2023-03-12T10:03:52.287Z,100124.22
2023-03-12T10:06:22.842Z,100119.38
2023-03-12T10:09:07.032Z,100115.69
2023-03-12T10:11:49.697Z,100117.78
2023-03-12T10:14:28.142Z,100115.91
2023-03-12T10:17:03.531Z,100115.50
2023-03-12T10:19:45.329Z,100114.81
2023-03-12T10:22:25.782Z,100113.31
2023-03-12T10:25:02.147Z,100104.78
2023-03-12T10:27:37.064Z,100105.59
2023-03-12T10:30:16.826Z,100104.44
2023-03-12T10:32:51.709Z,100103.00
2023-03-12T10:35:22.129Z,100100.97
2023-03-12T10:37:53.409Z,100094.91
2023-03-12T10:40:23.543Z,100090.50
2023-03-12T10:42:53.560Z,100079.22
2023-03-12T10:45:32.367Z,100089.16
2023-03-12T10:48:03.678Z,100091.59
2023-03-12T10:50:33.503Z,100087.28
2023-03-12T10:53:28.572Z,100087.31
2023-03-12T10:56:02.753Z,100100.16
2023-03-12T10:58:37.625Z,100096.63
2023-03-12T11:01:08.621Z,100095.44
2023-03-12T11:03:36.733Z,100097.34
2023-03-12T11:06:08.570Z,100095.41
2023-03-12T11:08:38.344Z,100099.00
2023-03-12T11:11:06.934Z,100106.31
2023-03-12T11:13:38.185Z,100098.81
2023-03-12T11:16:30.788Z,100087.78
2023-03-12T11:19:01.580Z,100090.13
2023-03-12T11:21:30.697Z,100094.88
2023-03-12T11:24:08.366Z,100084.88
2023-03-12T11:26:41.990Z,100083.19
2023-03-12T11:29:24.112Z,99816.69
2023-03-12T11:32:03.552Z,100070.28
2023-03-12T11:34:34.160Z,100061.75
2023-03-12T11:37:09.075Z,100065.22
2023-03-12T11:39:50.465Z,100056.31
2023-03-12T11:42:28.356Z,100057.81
2023-03-12T11:45:10.056Z,100050.16
2023-03-12T11:48:00.609Z,100054.09
2023-03-12T11:50:43.781Z,100050.00
2023-03-12T11:53:29.724Z,100046.19
2023-03-12T11:56:16.882Z,100049.81
2023-03-12T11:58:57.043Z,100052.09
2023-03-12T12:01:39.482Z,100047.13
2023-03-12T12:04:42.758Z,100049.22
2023-03-12T12:07:24.065Z,100034.03
2023-03-12T12:09:59.215Z,100036.44
2023-03-12T12:12:42.895Z,100026.78
2023-03-12T12:15:21.639Z,100020.94
2023-03-12T12:18:01.248Z,100020.09
2023-03-12T12:20:39.084Z,100017.72
2023-03-12T12:23:17.339Z,100007.84
2023-03-12T12:26:02.415Z,100000.13
2023-03-12T12:29:06.844Z,100001.41
2023-03-12T12:31:41.599Z,100004.34
2023-03-12T12:34:32.438Z,100007.94
2023-03-12T12:37:18.669Z,100007.09
2023-03-12T12:39:51.127Z,99999.72
2023-03-12T12:42:24.705Z,99989.09
2023-03-12T12:44:56.317Z,99990.75
2023-03-12T12:47:38.795Z,99990.50
2023-03-12T12:50:15.932Z,99993.38
2023-03-12T12:52:44.898Z,99991.84
2023-03-12T12:55:18.011Z,99992.16
2023-03-12T12:57:50.502Z,99994.31
2023-03-12T13:00:34.391Z,99988.47
2023-03-12T13:03:03.331Z,99977.91
2023-03-12T13:05:47.236Z,99979.38
2023-03-12T13:08:53.385Z,99972.09
2023-03-12T13:11:28.416Z,99973.81
2023-03-12T13:14:35.287Z,99966.19
2023-03-12T13:17:21.910Z,99959.69
2023-03-12T13:20:00.830Z,99955.91
2023-03-12T13:22:45.988Z,99954.50
2023-03-12T13:25:36.224Z,99954.47
2023-03-12T13:28:32.371Z,99942.09
2023-03-12T13:31:03.138Z,99956.53
2023-03-12T13:33:45.507Z,99963.84
2023-03-12T13:36:28.418Z,99962.84
2023-03-12T13:39:01.673Z,99954.13
2023-03-12T13:41:35.745Z,99944.28
2023-03-12T13:44:29.952Z,99944.03
2023-03-12T13:47:03.825Z,99935.31
2023-03-12T13:49:38.408Z,99930.63
2023-03-12T13:52:23.686Z,99927.53
2023-03-12T13:55:00.747Z,99925.91
2023-03-12T13:57:38.903Z,99927.44
2023-03-12T14:00:16.592Z,99938.75
2023-03-12T14:02:50.935Z,99941.41
2023-03-12T14:05:21.626Z,99932.00
2023-03-12T14:08:19.177Z,99929.91
2023-03-12T14:11:04.626Z,99928.41
2023-03-12T14:13:45.621Z,99933.34
2023-03-12T14:16:22.865Z,99929.44
2023-03-12T14:18:53.714Z,99932.88
2023-03-12T14:21:23.389Z,99929.72
2023-03-12T14:23:54.144Z,99936.22
2023-03-12T14:26:25.650Z,99930.25
2023-03-12T14:29:01.357Z,99921.63
2023-03-12T14:31:31.779Z,99912.78
2023-03-12T14:34:06.925Z,99915.75
2023-03-12T14:36:42.240Z,99911.44
2023-03-12T14:39:21.919Z,99917.03
2023-03-12T14:41:57.286Z,99921.75
2023-03-12T14:44:27.480Z,99914.91
2023-03-12T14:47:00.980Z,99912.56
2023-03-12T14:49:31.524Z,99916.84
2023-03-12T14:51:59.476Z,99917.69
2023-03-12T14:54:29.737Z,99911.31
2023-03-12T14:56:57.768Z,99909.63
2023-03-12T14:59:29.298Z,99915.16
2023-03-12T15:02:01.787Z,99915.22
2023-03-12T15:04:34.838Z,99911.06
2023-03-12T15:07:05.213Z,99908.38
2023-03-12T15:09:36.492Z,99908.66
2023-03-12T15:12:07.978Z,99901.31
2023-03-12T15:14:41.002Z,99897.00
2023-03-12T15:17:09.427Z,99896.94
2023-03-12T15:19:41.041Z,99885.69
2023-03-12T15:22:14.059Z,99887.81
2023-03-12T15:24:41.999Z,99887.88
2023-03-12T15:27:31.861Z,99880.34
2023-03-12T15:30:02.042Z,99865.97
2023-03-12T15:32:32.035Z,99866.44
2023-03-12T15:35:14.631Z,99871.19
2023-03-12T15:37:53.530Z,99875.72
2023-03-12T15:40:24.612Z,99872.84
2023-03-12T15:42:57.458Z,99872.94
2023-03-12T15:45:27.719Z,99864.84
2023-03-12T15:47:56.488Z,99855.09
2023-03-12T15:50:31.500Z,99858.59
2023-03-12T15:53:01.988Z,99858.16
2023-03-12T15:55:31.424Z,99856.34
2023-03-12T15:58:00.433Z,99857.16
2023-03-12T16:00:29.625Z,99856.53
2023-03-12T16:02:59.670Z,99852.63
2023-03-12T16:05:33.289Z,99852.72
2023-03-12T16:08:03.893Z,99854.06
2023-03-12T16:10:37.278Z,99848.84
2023-03-12T16:13:06.057Z,99857.00
2023-03-12T16:15:37.885Z,99852.13
2023-03-12T16:18:06.284Z,99849.56
2023-03-12T16:20:35.611Z,99850.47
2023-03-12T16:23:03.615Z,99852.50
2023-03-12T16:25:35.332Z,99844.00
2023-03-12T16:28:06.691Z,99851.53
2023-03-12T16:30:36.456Z,99846.72
2023-03-12T16:33:09.206Z,99846.31
2023-03-12T16:35:38.829Z,99844.28
2023-03-12T16:38:07.337Z,99832.44
2023-03-12T16:40:38.323Z,99840.56
2023-03-12T16:43:09.059Z,99840.72
2023-03-12T16:45:38.090Z,99838.19
2023-03-12T16:48:07.481Z,99844.47
2023-03-12T16:50:35.435Z,99850.13
2023-03-12T16:53:05.953Z,99847.22
2023-03-12T16:55:45.176Z,99832.59
2023-03-12T16:58:15.592Z,99839.91
2023-03-12T17:00:43.696Z,99835.75
2023-03-12T17:03:20.617Z,99842.22
2023-03-12T17:05:48.796Z,99829.09
2023-03-12T17:08:18.121Z,99827.44
2023-03-12T17:10:46.213Z,99815.59
2023-03-12T17:13:20.963Z,99812.91
2023-03-12T17:15:49.416Z,99813.38
2023-03-12T17:18:17.801Z,99802.94
2023-03-12T17:20:46.236Z,99797.72
2023-03-12T17:23:14.534Z,99789.38
2023-03-12T17:25:45.560Z,99801.50
2023-03-12T17:28:15.295Z,99808.56
2023-03-12T17:30:45.364Z,99817.34
2023-03-12T17:33:15.416Z,99820.91
2023-03-12T17:35:44.227Z,99806.31
2023-03-12T17:38:13.171Z,99816.75
2023-03-12T17:40:41.514Z,99812.38
2023-03-12T17:43:11.099Z,99804.88
2023-03-12T17:45:39.240Z,99803.22
2023-03-12T17:48:07.438Z,99809.03
2023-03-12T17:50:35.812Z,99807.81
2023-03-12T17:53:03.869Z,99807.78
2023-03-12T17:55:31.802Z,99801.97
2023-03-12T17:57:59.996Z,99799.03
2023-03-12T18:00:29.281Z,99798.75
2023-03-12T18:02:57.377Z,99791.25
2023-03-12T18:05:25.525Z,99796.50
2023-03-12T18:07:53.836Z,99794.47
2023-03-12T18:10:22.391Z,99809.06
2023-03-12T18:12:50.487Z,99806.13
2023-03-12T18:15:18.448Z,99812.38
2023-03-12T18:17:50.101Z,99813.41
2023-03-12T18:20:28.725Z,99819.44
2023-03-12T18:23:00.668Z,99819.88
2023-03-12T18:25:28.613Z,99819.03
2023-03-12T18:27:56.827Z,99816.97
2023-03-12T18:30:24.770Z,99797.16
2023-03-12T18:32:54.361Z,99813.59
2023-03-12T18:35:28.705Z,99812.75
2023-03-12T18:37:56.901Z,99806.09
2023-03-12T18:40:25.109Z,99804.00
2023-03-12T18:42:53.296Z,99804.84
2023-03-12T18:45:21.251Z,99812.94
2023-03-12T18:47:51.108Z,99804.41
2023-03-12T18:50:21.671Z,99790.88
2023-03-12T18:52:49.859Z,99811.25
2023-03-12T18:55:18.354Z,99812.94
2023-03-12T18:57:47.731Z,99811.06
2023-03-12T19:00:18.331Z,99805.25
2023-03-12T19:02:48.393Z,99810.63
2023-03-12T19:05:17.557Z,99813.53
2023-03-12T19:07:47.030Z,99812.09
2023-03-12T19:10:16.153Z,99814.56
2023-03-12T19:12:53.630Z,99813.72
2023-03-12T19:15:24.505Z,99814.34
2023-03-12T19:17:52.703Z,99806.66
2023-03-12T19:20:21.206Z,99808.94
2023-03-12T19:22:50.886Z,99809.03
2023-03-12T19:25:20.064Z,99806.53
2023-03-12T19:27:48.278Z,99813.84
2023-03-12T19:30:16.837Z,99801.72
2023-03-12T19:32:45.040Z,99799.22
2023-03-12T19:35:14.990Z,99791.69
2023-03-12T19:37:43.366Z,99794.63
2023-03-12T19:40:14.460Z,99781.69
2023-03-12T19:42:42.534Z,99780.59
2023-03-12T19:45:11.902Z,99777.72
2023-03-12T19:47:39.924Z,99775.91
2023-03-12T19:50:09.613Z,99780.56
2023-03-12T19:52:38.751Z,99784.72
2023-03-12T19:55:07.372Z,99783.88
2023-03-12T19:57:36.855Z,99782.22
2023-03-12T20:00:09.697Z,99770.09
2023-03-12T20:02:39.073Z,99780.00
2023-03-12T20:05:09.327Z,99781.66
2023-03-12T20:07:37.448Z,99777.06
2023-03-12T20:10:06.559Z,99769.50
2023-03-12T20:12:36.131Z,99762.06
2023-03-12T20:15:04.480Z,99765.47
2023-03-12T20:17:32.644Z,99760.28
2023-03-12T20:20:01.334Z,99764.50
2023-03-12T20:22:29.430Z,99754.50
2023-03-12T20:24:57.456Z,99761.16
2023-03-12T20:27:25.392Z,99759.63
2023-03-12T20:29:54.798Z,99757.72
2023-03-12T20:32:22.875Z,99756.22
2023-03-12T20:34:50.848Z,99752.81
2023-03-12T20:37:19.516Z,99753.81
2023-03-12T20:39:47.459Z,99749.84
2023-03-12T20:42:15.447Z,99748.53
2023-03-12T20:44:43.416Z,99746.50
2023-03-12T20:47:12.821Z,99746.13
2023-03-12T20:49:40.742Z,99746.19
2023-03-12T20:52:08.751Z,99747.06
2023-03-12T20:54:36.742Z,99754.38
2023-03-12T20:57:04.823Z,99740.91
2023-03-12T20:59:32.824Z,99732.00
2023-03-12T21:02:00.903Z,99742.03
2023-03-12T21:04:30.319Z,99741.91
2023-03-12T21:06:58.308Z,99741.81
2023-03-12T21:09:26.280Z,99747.72
2023-03-12T21:11:54.249Z,99743.63
2023-03-12T21:14:22.256Z,99744.47
2023-03-12T21:16:50.293Z,99734.06
2023-03-12T21:19:18.356Z,99737.72
2023-03-12T21:21:47.726Z,99735.78
2023-03-12T21:24:17.782Z,99730.41
2023-03-12T21:26:46.325Z,99731.22
2023-03-12T21:29:14.438Z,99732.44
2023-03-12T21:31:42.562Z,99731.69
2023-03-12T21:34:10.625Z,99726.78
2023-03-12T21:36:38.658Z,99726.50
2023-03-12T21:39:08.107Z,99729.00
2023-03-12T21:41:36.117Z,99723.50
2023-03-12T21:44:04.083Z,99726.84
2023-03-12T21:46:32.415Z,99726.19
2023-03-12T21:49:00.764Z,99722.97
2023-03-12T21:51:28.839Z,99731.22
2023-03-12T21:53:58.249Z,99732.22
2023-03-12T21:56:28.973Z,99724.75
2023-03-12T21:58:58.107Z,99724.66
2023-03-12T22:01:26.670Z,99712.50
2023-03-12T22:03:54.802Z,99719.44
2023-03-12T22:06:23.038Z,99712.72
2023-03-12T22:08:52.404Z,99705.31
2023-03-12T22:11:20.617Z,99709.50
2023-03-12T22:13:50.172Z,99718.09
2023-03-12T22:16:18.331Z,99708.06
2023-03-12T22:18:47.366Z,99714.47
2023-03-12T22:21:17.138Z,99708.06
2023-03-12T22:23:48.079Z,99709.63
2023-03-12T22:26:16.524Z,99699.41
2023-03-12T22:28:51.562Z,99699.06
2023-03-12T22:31:20.918Z,99689.25
2023-03-12T22:33:49.041Z,99693.56
2023-03-12T22:36:18.486Z,99692.00
2023-03-12T22:38:47.778Z,99699.56
2023-03-12T22:41:17.889Z,99691.81
2023-03-12T22:43:46.969Z,99687.50
2023-03-12T22:46:17.137Z,99681.31
2023-03-12T22:48:45.560Z,99682.81
2023-03-12T22:51:14.241Z,99677.78
2023-03-12T22:53:42.171Z,99669.97
2023-03-12T22:56:12.480Z,99670.97
2023-03-12T22:58:40.882Z,99672.78
2023-03-12T23:01:10.482Z,99669.13
2023-03-12T23:03:42.193Z,99669.91
2023-03-12T23:06:11.163Z,99653.78
2023-03-12T23:08:39.424Z,99656.13
2023-03-12T23:11:08.593Z,99650.09
2023-03-12T23:13:39.242Z,99645.13
2023-03-12T23:16:09.484Z,99637.66
2023-03-12T23:18:39.231Z,99644.78
2023-03-12T23:21:10.529Z,99646.06
2023-03-12T23:23:41.923Z,99634.19
2023-03-12T23:26:13.395Z,99635.25
2023-03-12T23:28:41.413Z,99628.50
2023-03-12T23:31:10.801Z,99635.25
2023-03-12T23:33:40.476Z,99628.22
2023-03-12T23:36:10.911Z,99625.25
2023-03-12T23:38:39.315Z,99629.75
2023-03-12T23:41:09.269Z,99618.78
2023-03-12T23:43:37.448Z,99625.28
2023-03-12T23:46:07.479Z,99618.63
2023-03-12T23:48:37.248Z,99614.81
2023-03-12T23:51:08.774Z,99610.88
2023-03-12T23:53:37.752Z,99601.28
2023-03-12T23:56:08.598Z,99603.59
2023-03-12T23:58:37.039Z,99596.09
